Time;durP1;ratioP1;P1;durP2;ratioP2;P2;SDS_P1;SDS_P2;PMS_P1;PMS_P2;Temp;Humidity;BMP_temperature;BMP_pressure;BME280_temperature;BME280_humidity;BME280_pressure;Samples;Min_cycle;Max_cycle;Signal;HPM_P1;HPM_P2
2021/05/05 00:00:45;;;;;;;18.37;8.28;;;;;;;16.18;31.05;100517.16;1847017;77;21126;-76
2021/05/05 00:03:13;;;;;;;19.20;8.33;;;;;;;16.15;31.07;100504.03;1846327;77;21193;-76
2021/05/05 00:05:41;;;;;;;18.42;7.62;;;;;;;16.15;31.12;100508.59;1813182;77;21177;-76
2021/05/05 00:08:08;;;;;;;19.10;7.83;;;;;;;16.12;31.10;100503.05;1846157;77;21157;-76
2021/05/05 00:10:35;;;;;;;16.52;7.00;;;;;;;16.08;31.13;100499.09;1799962;78;21149;-76
2021/05/05 00:13:02;;;;;;;;;;;;;;;16.07;31.20;100505.50;1815782;78;21756;-77
2021/05/05 00:15:29;;;;;;;18.77;10.20;;;;;;;16.04;31.13;100503.72;1784048;80;20582;-75
2021/05/05 00:17:56;;;;;;;;;;;;;;;15.98;31.19;100501.25;1816366;79;21525;-79
2021/05/05 00:20:23;;;;;;;22.48;13.68;;;;;;;15.93;31.32;100500.48;1770870;81;20216;-76
2021/05/05 00:22:51;;;;;;;25.20;14.28;;;;;;;15.90;31.28;100499.53;1797049;79;21135;-76
2021/05/05 00:25:20;;;;;;;20.45;13.53;;;;;;;15.89;31.31;100498.36;1797045;79;21194;-74
2021/05/05 00:27:48;;;;;;;21.52;12.15;;;;;;;15.89;31.32;100499.70;1797074;79;21103;-77
2021/05/05 00:30:16;;;;;;;16.12;10.10;;;;;;;15.88;31.36;100499.39;1797289;79;21087;-78
2021/05/05 00:32:44;;;;;;;17.98;9.75;;;;;;;15.88;31.39;100494.82;1797211;79;21138;-76
2021/05/05 00:35:12;;;;;;;13.98;9.28;;;;;;;15.88;31.39;100496.69;1796790;79;21174;-75
2021/05/05 00:37:41;;;;;;;15.08;7.87;;;;;;;15.87;31.41;100503.12;1797071;79;21162;-76
2021/05/05 00:40:11;;;;;;;11.78;7.28;;;;;;;15.86;31.44;100493.36;1742239;78;21147;-77
2021/05/05 00:42:38;;;;;;;14.50;7.92;;;;;;;15.84;31.46;100499.45;1795662;78;21640;-75
2021/05/05 00:45:12;;;;;;;14.38;7.20;;;;;;;15.83;31.47;100501.83;1829819;78;21587;-74
2021/05/05 00:47:41;;;;;;;13.80;7.75;;;;;;;15.84;31.49;100502.15;1829757;78;21583;-75
2021/05/05 00:50:14;;;;;;;15.60;7.87;;;;;;;15.84;31.50;100498.09;1829786;78;21548;-77
2021/05/05 00:52:41;;;;;;;15.32;7.70;;;;;;;15.83;31.54;100496.43;1829578;78;21140;-74
2021/05/05 00:55:11;;;;;;;15.35;7.75;;;;;;;15.81;31.58;100490.39;1829387;78;21164;-75
2021/05/05 00:57:41;;;;;;;14.63;8.15;;;;;;;15.80;31.57;100496.80;1829741;78;21177;-78
2021/05/05 01:00:11;;;;;;;15.98;8.38;;;;;;;15.78;31.59;100492.13;1795906;78;21129;-77
2021/05/05 01:02:39;;;;;;;18.40;8.10;;;;;;;15.76;31.64;100492.33;1829721;78;21581;-76
2021/05/05 01:05:10;;;;;;;18.27;8.78;;;;;;;15.75;31.60;100485.73;1829681;78;21528;-76
2021/05/05 01:07:37;;;;;;;20.37;7.75;;;;;;;15.72;31.61;100491.03;1829813;78;21103;-75
2021/05/05 01:10:10;;;;;;;21.68;8.00;;;;;;;15.71;31.64;100488.84;1827251;78;21129;-76
2021/05/05 01:12:37;;;;;;;18.07;7.78;;;;;;;15.70;31.67;100487.66;1796998;79;21182;-78
2021/05/05 01:15:06;;;;;;;15.05;6.50;;;;;;;15.70;31.62;100489.84;1796917;79;21103;-78
2021/05/05 01:17:35;;;;;;;15.38;6.65;;;;;;;15.69;31.61;100489.53;1797168;79;21151;-75
2021/05/05 01:20:08;;;;;;;11.97;6.85;;;;;;;15.65;31.63;100489.59;1797160;79;21558;-77
2021/05/05 01:22:36;;;;;;;27.77;15.05;;;;;;;15.61;31.75;100486.91;1797092;79;21530;-75
2021/05/05 01:25:06;;;;;;;16.02;8.80;;;;;;;15.60;31.80;100479.84;1797061;79;21633;-77
2021/05/05 01:27:35;;;;;;;14.47;7.30;;;;;;;15.64;31.81;100478.98;1797234;79;20937;-74
2021/05/05 01:30:06;;;;;;;17.50;7.12;;;;;;;15.66;31.78;100479.10;1797140;79;21168;-75
2021/05/05 01:32:34;;;;;;;17.62;6.50;;;;;;;15.64;31.85;100477.13;1797049;79;21091;-75
2021/05/05 01:35:04;;;;;;;15.43;7.00;;;;;;;15.66;31.88;100471.00;1797010;79;21130;-76
2021/05/05 01:37:33;;;;;;;26.48;7.15;;;;;;;15.67;31.85;100472.70;1796948;79;21577;-76
2021/05/05 01:40:03;;;;;;;20.12;6.58;;;;;;;15.65;31.90;100467.16;1796691;79;21119;-78
2021/05/05 01:42:30;;;;;;;21.68;6.33;;;;;;;15.64;32.01;100464.97;1797047;79;21167;-74
2021/05/05 01:44:58;;;;;;;56.68;9.83;;;;;;;15.64;32.05;100454.69;1796802;79;21172;-77
2021/05/05 01:47:25;;;;;;;;;;;;;;;15.63;32.10;100448.94;1799900;79;21587;-77
2021/05/05 01:49:53;;;;;;;30.90;8.33;;;;;;;15.61;32.13;100451.81;1797463;79;20492;-78
2021/05/05 01:52:20;;;;;;;36.25;9.33;;;;;;;15.60;32.26;100452.02;1797086;79;21127;-75
2021/05/05 01:54:48;;;;;;;46.25;10.23;;;;;;;15.59;32.35;100447.13;1797144;79;21567;-76
2021/05/05 01:57:39;;;;;;;39.05;9.48;;;;;;;15.61;32.34;100447.76;1797373;79;21029;-77
2021/05/05 02:00:08;;;;;;;50.25;12.03;;;;;;;15.62;32.36;100452.12;1799603;79;21112;-76
2021/05/05 02:02:38;;;;;;;24.85;10.30;;;;;;;15.63;32.38;100449.77;1797957;79;21167;-75
2021/05/05 02:05:08;;;;;;;27.82;12.58;;;;;;;15.63;32.41;100449.77;1771361;79;21620;-77
2021/05/05 02:07:39;;;;;;;26.73;12.30;;;;;;;15.64;32.43;100447.42;1797179;79;21072;-75
2021/05/05 02:10:11;;;;;;;24.12;11.63;;;;;;;15.66;32.44;100445.34;1799860;78;21144;-76
2021/05/05 02:12:40;;;;;;;62.73;12.20;;;;;;;15.67;32.43;100447.05;1829667;78;21143;-76
2021/05/05 02:15:11;;;;;;;32.33;11.35;;;;;;;15.69;32.47;100444.98;1829497;78;21427;-75
2021/05/05 02:17:40;;;;;;;27.55;10.55;;;;;;;15.70;32.41;100455.26;1829747;78;21149;-76
2021/05/05 02:20:10;;;;;;;19.80;8.63;;;;;;;15.69;32.38;100454.42;1829569;78;21125;-75
2021/05/05 02:22:38;;;;;;;18.60;8.08;;;;;;;15.69;32.35;100447.67;1829377;78;21181;-75
2021/05/05 02:25:08;;;;;;;17.67;7.83;;;;;;;15.69;32.34;100447.67;1796551;78;21082;-75
2021/05/05 02:27:36;;;;;;;15.83;6.75;;;;;;;15.68;32.35;100451.41;1795235;78;21112;-75
2021/05/05 02:30:09;;;;;;;12.85;6.75;;;;;;;15.66;32.34;100445.34;1829674;78;21185;-77
2021/05/05 02:32:44;;;;;;;18.73;7.58;;;;;;;15.66;32.33;100444.00;1828178;78;21125;-76
2021/05/05 02:35:12;;;;;;;17.50;7.97;;;;;;;15.67;32.33;100445.70;1829801;78;21101;-77
2021/05/05 02:37:39;;;;;;;23.90;8.60;;;;;;;15.66;32.42;100450.75;1829718;78;21587;-76
2021/05/05 02:40:09;;;;;;;;;;;;;;;15.65;32.45;100449.09;1829761;78;21120;-77
2021/05/05 02:42:36;;;;;;;15.48;7.78;;;;;;;15.66;32.49;100450.75;1796688;79;20215;-76
2021/05/05 02:45:06;;;;;;;17.32;8.50;;;;;;;15.64;32.54;100445.23;1796946;79;21091;-75
2021/05/05 02:47:34;;;;;;;18.57;9.05;;;;;;;15.63;32.63;100450.29;1797222;79;21490;-74
2021/05/05 02:50:03;;;;;;;22.98;8.25;;;;;;;15.61;32.69;100450.46;1796941;79;21143;-76
2021/05/05 02:52:30;;;;;;;172.45;14.58;;;;;;;15.61;32.76;100454.51;1796879;79;21131;-74
2021/05/05 02:54:58;;;;;;;188.52;16.95;;;;;;;15.59;32.86;100447.64;1796903;79;21151;-77
2021/05/05 02:57:27;;;;;;;39.53;8.73;;;;;;;15.58;32.98;100452.70;1763838;79;21217;-77
2021/05/05 02:59:56;;;;;;;19.27;8.25;;;;;;;15.61;33.11;100452.33;1797179;79;21067;-77
2021/05/05 03:02:23;;;;;;;20.70;9.08;;;;;;;15.60;33.21;100448.80;1796869;79;21661;-76
2021/05/05 03:04:51;;;;;;;21.25;8.68;;;;;;;15.61;33.28;100444.23;1796647;79;21241;-77
2021/05/05 03:07:18;;;;;;;22.32;8.83;;;;;;;15.62;33.32;100444.02;1764403;79;21198;-75
2021/05/05 03:09:47;;;;;;;23.57;8.80;;;;;;;15.62;33.43;100444.02;1796686;79;21068;-75
2021/05/05 03:12:14;;;;;;;;;;;;;;;15.64;33.50;100443.37;1799762;79;21101;-76
2021/05/05 03:14:43;;;;;;;27.35;8.43;;;;;;;15.66;33.56;100448.05;1797081;79;20799;-75
2021/05/05 03:17:10;;;;;;;24.20;9.53;;;;;;;15.65;33.63;100442.33;1797013;79;21151;-78
2021/05/05 03:19:39;;;;;;;27.05;10.23;;;;;;;15.67;33.79;100448.39;1797102;79;21163;-78
2021/05/05 03:22:07;;;;;;;22.85;10.80;;;;;;;15.67;33.83;100442.16;1764328;79;21135;-76
2021/05/05 03:24:35;;;;;;;27.87;10.10;;;;;;;15.67;33.87;100440.30;1797015;79;21060;-77
2021/05/05 03:27:02;;;;;;;31.20;11.20;;;;;;;15.71;33.92;100446.98;1796973;79;21166;-78
2021/05/05 03:29:30;;;;;;;30.62;14.55;;;;;;;15.72;34.02;100439.72;1808213;78;21156;-75
2021/05/05 03:31:58;;;;;;;31.20;12.18;;;;;;;15.74;34.08;100445.75;1814197;78;21081;-77
2021/05/05 03:34:25;;;;;;;34.53;11.65;;;;;;;15.78;34.20;100450.26;1847577;77;21050;-77
2021/05/05 03:36:52;;;;;;;23.05;11.33;;;;;;;15.79;34.27;100449.22;1814304;79;21150;-77
2021/05/05 03:39:19;;;;;;;;;;;;;;;15.81;34.37;100447.19;1849607;77;21166;-76
2021/05/05 03:41:48;;;;;;;22.80;10.08;;;;;;;15.83;34.45;100448.64;1778623;79;20541;-76
2021/05/05 03:44:16;;;;;;;24.45;9.68;;;;;;;15.80;34.59;100453.59;1790036;78;21173;-76
2021/05/05 03:46:43;;;;;;;37.60;10.45;;;;;;;15.77;34.77;100453.48;1821225;78;21172;-76
2021/05/05 03:49:11;;;;;;;18.32;9.10;;;;;;;15.81;34.94;100445.84;1812753;79;21266;-75
2021/05/05 03:51:38;;;;;;;;;;;;;;;15.85;35.04;100447.95;1848763;77;21119;-75
2021/05/05 03:54:05;;;;;;;24.12;15.72;;;;;;;15.92;35.10;100442.60;1832320;77;20309;-76
2021/05/05 03:56:32;;;;;;;18.52;12.07;;;;;;;15.90;35.28;100432.52;1822259;78;21149;-76
2021/05/05 03:58:59;;;;;;;;;;;;;;;15.92;35.41;100426.39;1814555;79;21219;-76
2021/05/05 04:01:26;;;;;;;13.00;8.68;;;;;;;15.94;35.54;100432.42;1808192;79;20279;-76
2021/05/05 04:03:56;;;;;;;16.10;9.05;;;;;;;15.96;35.68;100425.81;1812142;78;21209;-77
2021/05/05 04:06:33;;;;;;;20.50;12.98;;;;;;;15.97;35.92;100425.30;1823050;77;21217;-77
2021/05/05 04:09:00;;;;;;;;;;;;;;;16.01;36.12;100419.83;1839000;77;21171;-75
2021/05/05 04:11:28;;;;;;;15.05;9.95;;;;;;;16.11;36.21;100417.62;1812832;78;20272;-75
2021/05/05 04:13:55;;;;;;;17.95;11.97;;;;;;;16.21;36.33;100424.90;1812123;78;21187;-76
2021/05/05 04:16:42;;;;;;;14.43;8.43;;;;;;;16.26;36.63;100422.96;1830726;77;21157;-74
2021/05/05 04:19:27;;;;;;;13.18;6.15;;;;;;;16.37;36.77;100422.92;1845528;77;21182;-75
2021/05/05 04:22:12;;;;;;;9.28;5.30;;;;;;;16.47;37.04;100404.48;1845435;77;21138;-75
2021/05/05 04:24:57;;;;;;;8.23;4.67;;;;;;;16.54;37.33;100401.31;1845605;77;21162;-76
2021/05/05 04:27:25;;;;;;;7.72;4.37;;;;;;;16.58;37.60;100401.73;1846921;77;21129;-74
2021/05/05 04:29:52;;;;;;;;;;;;;;;16.57;37.80;100399.55;1849237;77;21541;-75
2021/05/05 04:32:20;;;;;;;7.90;3.80;;;;;;;16.59;38.05;100393.44;1813015;78;20365;-76
2021/05/05 04:34:47;;;;;;;;;;;;;;;16.60;38.16;100393.75;1827071;77;21167;-76
2021/05/05 04:37:14;;;;;;;7.65;4.15;;;;;;;16.65;38.41;100399.39;1814562;77;20270;-76
2021/05/05 04:39:42;;;;;;;14.75;8.08;;;;;;;16.72;38.65;100399.48;1811393;79;21671;-75
2021/05/05 04:42:11;;;;;;;6.28;3.98;;;;;;;16.76;38.82;100402.11;1792795;79;21459;-77
2021/05/05 04:44:39;;;;;;;7.30;3.98;;;;;;;16.80;38.92;100392.53;1829520;77;21500;-76
2021/05/05 04:47:06;;;;;;;;;;;;;;;16.92;39.10;100396.86;1820641;78;21110;-75
2021/05/05 04:49:33;;;;;;;8.40;3.83;;;;;;;17.04;39.11;100403.90;1804505;78;20250;-76
2021/05/05 04:52:04;;;;;;;6.03;3.80;;;;;;;17.16;39.18;100407.16;1799516;78;21169;-78
2021/05/05 04:54:32;;;;;;;15.60;4.67;;;;;;;17.27;39.17;100397.63;1815043;78;21701;-81
2021/05/05 04:57:00;;;;;;;8.03;3.60;;;;;;;17.36;39.25;100402.34;1776257;79;21201;-77
2021/05/05 04:59:27;;;;;;;8.33;4.70;;;;;;;17.44;39.18;100403.49;1764886;78;21783;-78
2021/05/05 05:01:54;;;;;;;9.50;4.42;;;;;;;17.51;39.20;100400.30;1802993;78;21192;-77
2021/05/05 05:04:22;;;;;;;13.30;4.47;;;;;;;17.55;39.33;100394.78;1805540;78;21698;-76
2021/05/05 05:06:49;;;;;;;11.12;4.40;;;;;;;17.62;39.39;100391.58;1816789;78;21746;-75
2021/05/05 05:09:16;;;;;;;;;;;;;;;17.71;39.56;100398.97;1811267;78;21229;-76
2021/05/05 05:11:44;;;;;;;14.87;4.80;;;;;;;17.75;39.61;100406.50;1805554;78;20216;-75
2021/05/05 05:14:12;;;;;;;10.45;4.20;;;;;;;17.84;39.64;100409.02;1814507;78;21085;-75
2021/05/05 05:16:39;;;;;;;7.95;3.75;;;;;;;17.98;39.77;100408.81;1815658;78;21220;-74
2021/05/05 05:19:06;;;;;;;7.22;2.90;;;;;;;18.07;39.38;100407.27;1767225;78;21608;-76
2021/05/05 05:21:34;;;;;;;8.38;3.65;;;;;;;18.12;39.20;100405.63;1801851;77;21849;-76
2021/05/05 05:24:01;;;;;;;;;;;;;;;18.17;39.02;100407.70;1779842;78;21177;-76
2021/05/05 05:26:29;;;;;;;6.40;3.17;;;;;;;18.20;38.85;100409.45;1771836;78;20272;-77
2021/05/05 05:28:55;;;;;;;;;;;;;;;18.21;38.96;100412.50;1809352;78;21456;-75
2021/05/05 05:31:23;;;;;;;10.32;3.62;;;;;;;18.27;38.99;100408.63;1809456;78;20298;-76
2021/05/05 05:33:50;;;;;;;6.95;3.70;;;;;;;18.34;38.77;100407.56;1810637;78;21062;-78
2021/05/05 05:36:19;;;;;;;7.53;2.90;;;;;;;18.44;38.57;100409.34;1819362;77;21193;-78
2021/05/05 05:41:22;;;;;;;5.90;3.22;;;;;;;18.78;37.62;100407.94;1854031;75;22774;-75
2021/05/05 05:43:51;;;;;;;6.17;3.25;;;;;;;18.84;37.34;100407.08;1821216;77;21164;-76
2021/05/05 05:46:19;;;;;;;5.65;3.00;;;;;;;18.95;37.31;100409.14;1784292;78;21510;-76
2021/05/05 05:48:46;;;;;;;3.30;3.00;;;;;;;19.08;36.87;100405.03;1817746;77;21215;-75
2021/05/05 05:51:15;;;;;;;7.03;3.08;;;;;;;19.15;36.65;100401.74;1811944;77;21207;-76
2021/05/05 05:53:42;;;;;;;8.75;3.52;;;;;;;19.25;36.39;100400.75;1773703;80;21558;-76
2021/05/05 05:56:10;;;;;;;3.77;2.87;;;;;;;19.30;36.21;100400.09;1773264;79;21180;-75
2021/05/05 05:58:38;;;;;;;4.28;3.37;;;;;;;19.37;36.35;100393.29;1773684;78;21223;-77
2021/05/05 06:01:06;;;;;;;7.72;3.20;;;;;;;19.44;36.11;100391.34;1768361;79;21181;-77
2021/05/05 06:03:34;;;;;;;6.25;3.33;;;;;;;19.46;35.72;100386.02;1753623;80;21129;-74
2021/05/05 06:06:01;;;;;;;;;;;;;;;19.45;35.97;100382.17;1755599;80;21412;-77
2021/05/05 06:08:30;;;;;;;5.30;2.95;;;;;;;19.56;36.19;100390.97;1753527;80;20257;-77
2021/05/05 06:10:58;;;;;;;3.70;3.05;;;;;;;19.68;35.80;100389.27;1746039;80;21180;-77
2021/05/05 06:13:28;;;;;;;4.67;3.15;;;;;;;19.79;35.92;100374.66;1767405;79;21659;-76
2021/05/05 06:15:55;;;;;;;5.42;3.00;;;;;;;19.97;36.03;100371.99;1750975;80;21018;-75
2021/05/05 06:18:22;;;;;;;3.60;2.70;;;;;;;20.22;35.74;100374.72;1748804;80;21130;-75
2021/05/05 06:20:49;;;;;;;3.58;2.35;;;;;;;20.40;35.25;100376.11;1733930;79;21113;-74
2021/05/05 06:23:16;;;;;;;5.08;2.62;;;;;;;20.53;34.71;100360.22;1744422;80;21145;-77
2021/05/05 06:25:48;;;;;;;3.22;2.50;;;;;;;20.56;34.72;100351.58;1747712;80;21150;-76
2021/05/05 06:31:06;;;;;;;6.83;3.40;;;;;;;20.87;34.65;100338.34;1805098;75;27740;-76
2021/05/05 06:33:39;;;;;;;4.15;2.45;;;;;;;21.10;34.90;100340.34;1779397;79;21213;-75
2021/05/05 06:36:07;;;;;;;6.65;2.70;;;;;;;21.40;34.35;100338.19;1792046;77;21197;-76
2021/05/05 06:38:34;;;;;;;4.33;2.08;;;;;;;21.62;34.00;100343.91;1789074;77;21220;-75
2021/05/05 06:41:04;;;;;;;3.27;2.40;;;;;;;21.77;33.31;100342.42;1791018;77;21240;-76
2021/05/05 06:43:46;;;;;;;5.08;2.37;;;;;;;21.79;33.32;100349.81;1797016;77;21602;-75
2021/05/05 06:46:19;;;;;;;3.80;2.40;;;;;;;21.90;33.60;100332.37;1799193;77;21163;-78
2021/05/05 06:48:49;;;;;;;3.60;2.25;;;;;;;22.17;33.45;100334.96;1777909;77;20988;-75
2021/05/05 06:51:16;;;;;;;7.83;2.50;;;;;;;22.38;33.18;100347.69;1741646;80;21567;-76
2021/05/05 06:53:43;;;;;;;;;;;;;;;22.61;33.17;100335.37;1749389;80;20994;-76
2021/05/05 06:56:27;;;;;;;5.08;2.17;;;;;;;22.90;32.51;100342.30;1794876;77;20184;-77
2021/05/05 06:59:08;;;;;;;6.83;2.40;;;;;;;23.08;32.03;100346.21;1797587;77;21097;-77
2021/05/05 07:01:37;;;;;;;3.02;2.52;;;;;;;23.27;32.20;100351.77;1793876;77;21126;-77
2021/05/05 07:04:09;;;;;;;2.77;2.27;;;;;;;23.46;32.03;100341.99;1796169;77;21128;-77
2021/05/05 07:06:37;;;;;;;2.05;1.85;;;;;;;23.63;31.28;100346.13;1797576;77;20970;-76
2021/05/05 07:09:05;;;;;;;3.70;2.50;;;;;;;23.78;31.09;100351.34;1794367;77;21341;-75
2021/05/05 07:11:35;;;;;;;7.03;2.80;;;;;;;23.82;30.67;100344.02;1796749;77;21081;-77
2021/05/05 07:14:06;;;;;;;7.17;3.60;;;;;;;23.83;30.86;100349.77;1800449;77;21097;-76
2021/05/05 07:16:34;;;;;;;8.60;2.87;;;;;;;23.93;31.05;100348.56;1801725;77;21117;-75
2021/05/05 07:19:02;;;;;;;8.93;2.50;;;;;;;24.11;30.90;100335.16;1796457;77;21134;-77
2021/05/05 07:21:32;;;;;;;3.02;2.50;;;;;;;24.19;30.16;100341.04;1796583;77;21667;-79
2021/05/05 07:24:00;;;;;;;6.80;2.58;;;;;;;24.13;30.78;100337.95;1798727;77;21136;-74
2021/05/05 07:26:30;;;;;;;3.35;1.92;;;;;;;24.23;30.41;100339.46;1802453;77;21155;-76
2021/05/05 07:28:57;;;;;;;;;;;;;;;24.32;30.48;100338.50;1803745;77;21129;-75
2021/05/05 07:31:28;;;;;;;5.80;1.95;;;;;;;24.39;29.84;100338.33;1798317;77;20230;-76
2021/05/05 07:33:56;;;;;;;5.75;1.72;;;;;;;24.34;29.47;100339.60;1795407;77;21121;-76
2021/05/05 07:36:28;;;;;;;9.38;2.47;;;;;;;24.22;29.66;100330.97;1795809;77;21141;-76
2021/05/05 07:47:15;;;;;;;5.93;1.87;;;;;;;24.60;29.33;100317.55;1736202;80;21172;-75
2021/05/05 07:49:54;;;;;;;5.00;2.33;;;;;;;24.63;29.92;100306.92;1711132;80;21682;-75
2021/05/05 07:52:22;;;;;;;11.15;2.20;;;;;;;24.82;29.99;100305.22;1746547;79;21118;-76
2021/05/05 07:54:50;;;;;;;8.68;1.87;;;;;;;25.08;29.60;100299.52;1765246;77;21126;-75
2021/05/05 07:57:21;;;;;;;3.42;1.65;;;;;;;25.26;29.19;100298.62;1794301;77;21600;-76
2021/05/05 07:59:48;;;;;;;6.45;1.62;;;;;;;25.37;28.52;100305.56;1801198;77;21584;-74
2021/05/05 08:02:17;;;;;;;4.03;1.65;;;;;;;25.26;28.13;100301.36;1799049;77;21110;-75
2021/05/05 08:04:49;;;;;;;2.80;1.55;;;;;;;25.13;28.46;100285.33;1768016;79;21659;-77
2021/05/05 08:07:23;;;;;;;8.00;2.00;;;;;;;25.15;28.71;100296.02;1720905;79;21160;-78
2021/05/05 08:09:52;;;;;;;28.45;2.85;;;;;;;25.12;28.33;100273.23;1718697;81;21160;-77
2021/05/05 08:12:20;;;;;;;9.00;2.35;;;;;;;25.11;28.35;100277.06;1744901;79;21212;-76
2021/05/05 08:14:51;;;;;;;12.13;2.30;;;;;;;25.09;28.67;100260.06;1801555;77;21121;-77
2021/05/05 08:17:20;;;;;;;8.30;2.60;;;;;;;25.13;28.80;100275.73;1794351;77;21934;-78
2021/05/05 08:19:49;;;;;;;9.30;2.42;;;;;;;25.22;28.73;100271.44;1771877;75;21245;-78
2021/05/05 08:22:16;;;;;;;16.62;2.17;;;;;;;25.32;28.79;100257.54;1710954;81;21207;-79
2021/05/05 08:24:44;;;;;;;6.15;2.50;;;;;;;25.41;27.88;100260.91;1734618;80;21125;-79
2021/05/05 08:27:11;;;;;;;5.75;2.17;;;;;;;25.39;28.27;100260.87;1707415;81;21137;-79
2021/05/05 08:29:39;;;;;;;21.68;2.75;;;;;;;25.45;28.20;100251.08;1733167;81;21730;-78
2021/05/05 08:32:06;;;;;;;;;;;;;;;25.57;28.18;100252.25;1734594;80;21153;-79
2021/05/05 08:34:34;;;;;;;2.95;1.82;;;;;;;25.67;28.10;100267.44;1730031;81;20298;-78
2021/05/05 08:37:01;;;;;;;4.00;1.85;;;;;;;25.58;27.36;100253.92;1732468;81;21141;-79
2021/05/05 08:39:31;;;;;;;;;;;;;;;25.44;27.81;100223.92;1735404;80;21156;-80
2021/05/05 08:41:58;;;;;;;5.87;1.70;;;;;;;25.41;27.53;100236.23;1757633;80;20634;-79
2021/05/05 08:44:26;;;;;;;7.25;1.70;;;;;;;25.40;27.84;100237.88;1754215;80;21164;-80
2021/05/05 08:46:53;;;;;;;5.08;1.62;;;;;;;25.40;27.27;100247.47;1753226;80;21094;-79
2021/05/05 08:49:21;;;;;;;11.00;1.65;;;;;;;25.30;27.56;100229.84;1698794;83;21190;-79
2021/05/05 08:51:49;;;;;;;6.90;1.57;;;;;;;25.30;27.67;100232.59;1720696;82;21118;-81
2021/05/05 08:54:16;;;;;;;16.00;2.95;;;;;;;25.32;27.89;100252.88;1711508;81;21177;-79
2021/05/05 08:56:49;;;;;;;9.58;2.10;;;;;;;25.21;27.58;100231.41;1706299;81;21171;-80
2021/05/05 08:59:18;;;;;;;5.28;1.70;;;;;;;25.06;27.84;100209.30;1708919;81;21145;-79
2021/05/05 09:01:45;;;;;;;9.38;1.82;;;;;;;25.00;28.01;100228.16;1708191;81;21133;-81
2021/05/05 09:04:14;;;;;;;9.23;1.98;;;;;;;24.95;28.30;100235.78;1758945;79;21101;-80
2021/05/05 09:06:52;;;;;;;12.85;1.77;;;;;;;24.94;28.43;100219.61;1759987;79;21131;-79
2021/05/05 09:09:44;;;;;;;9.10;2.20;;;;;;;24.93;27.90;100230.27;1756538;79;21591;-78
2021/05/05 09:12:21;;;;;;;4.80;2.42;;;;;;;24.86;28.23;100222.81;1758362;80;21088;-78
2021/05/05 09:15:15;;;;;;;7.35;2.10;;;;;;;24.78;28.15;100217.23;1752669;79;21527;-77
2021/05/05 09:17:48;;;;;;;5.10;2.12;;;;;;;24.73;28.52;100235.81;1755087;80;21063;-80
2021/05/05 09:20:31;;;;;;;7.75;1.45;;;;;;;24.75;28.81;100207.64;1748750;80;21121;-80
2021/05/05 09:23:04;;;;;;;13.53;2.37;;;;;;;24.80;28.32;100208.23;1719836;81;21146;-80
2021/05/05 09:25:46;;;;;;;34.63;3.10;;;;;;;24.77;28.08;100222.44;1737249;79;21567;-79
2021/05/05 09:28:16;;;;;;;7.00;1.52;;;;;;;24.68;28.53;100196.05;1731160;79;21105;-79
2021/05/05 09:30:50;;;;;;;5.72;2.35;;;;;;;24.67;28.64;100184.81;1737289;81;21153;-78
2021/05/05 09:33:33;;;;;;;10.82;2.22;;;;;;;24.72;28.51;100182.13;1735165;79;21149;-78
2021/05/05 09:36:03;;;;;;;9.10;2.22;;;;;;;24.78;28.96;100191.22;1734105;79;21149;-78
2021/05/05 09:38:51;;;;;;;4.28;1.72;;;;;;;24.85;28.29;100186.37;1735951;80;21115;-78
2021/05/05 09:41:24;;;;;;;3.33;1.60;;;;;;;24.81;28.51;100185.23;1735466;79;21133;-78
2021/05/05 09:43:59;;;;;;;17.92;4.05;;;;;;;24.81;28.74;100190.70;1734252;81;21670;-79
2021/05/05 09:46:43;;;;;;;25.00;5.03;;;;;;;24.78;28.80;100172.86;1732754;81;21039;-79
2021/05/05 09:49:34;;;;;;;11.73;2.72;;;;;;;24.83;29.05;100180.30;1739740;81;22165;-79
2021/05/05 09:52:18;;;;;;;8.98;2.27;;;;;;;24.85;28.60;100171.84;1742467;81;21140;-78
2021/05/05 09:55:04;;;;;;;13.03;3.02;;;;;;;24.86;28.32;100198.15;1742178;79;21125;-78
2021/05/05 09:57:33;;;;;;;5.50;1.50;;;;;;;24.82;27.97;100169.62;1745280;79;21132;-79
2021/05/05 10:00:16;;;;;;;10.53;1.95;;;;;;;24.73;28.21;100180.21;1738974;79;21147;-78
2021/05/05 10:02:46;;;;;;;5.47;1.80;;;;;;;24.69;28.50;100177.16;1690843;82;21150;-79
2021/05/05 10:05:27;;;;;;;12.13;2.45;;;;;;;24.66;28.46;100165.34;1740371;79;21108;-82
2021/05/05 10:08:00;;;;;;;;;;;;;;;24.64;28.79;100159.30;1746575;79;21426;-78
2021/05/05 10:10:33;;;;;;;8.23;1.67;;;;;;;24.70;28.88;100162.37;1741663;81;20289;-78
2021/05/05 10:13:03;;;;;;;7.75;1.85;;;;;;;24.80;28.55;100181.67;1719611;81;21121;-80
2021/05/05 10:15:36;;;;;;;7.65;1.77;;;;;;;24.85;28.55;100160.89;1743200;81;21857;-79
2021/05/05 10:18:07;;;;;;;10.32;2.80;;;;;;;24.88;28.39;100157.61;1696643;81;21172;-78
2021/05/05 10:20:34;;;;;;;77.78;6.65;;;;;;;24.86;28.62;100152.40;1748196;81;21128;-78
2021/05/05 10:23:03;;;;;;;21.45;4.65;;;;;;;24.82;28.09;100169.62;1739083;81;21132;-79
2021/05/05 10:25:31;;;;;;;5.65;2.52;;;;;;;24.75;28.29;100163.81;1736780;81;21015;-79
2021/05/05 10:27:58;;;;;;;5.85;2.30;;;;;;;24.71;28.55;100170.89;1708643;81;21167;-78
2021/05/05 10:30:31;;;;;;;17.27;3.75;;;;;;;24.74;28.82;100151.19;1734974;79;21485;-81
2021/05/05 10:33:02;;;;;;;24.82;4.67;;;;;;;24.82;28.71;100136.75;1735061;79;21113;-80
2021/05/05 10:35:29;;;;;;;39.53;7.33;;;;;;;24.89;28.45;100137.34;1738434;79;21133;-77
2021/05/05 10:38:00;;;;;;;;;;;;;;;24.94;28.15;100156.59;1735752;79;21176;-78
2021/05/05 10:40:33;;;;;;;52.25;9.83;;;;;;;24.96;28.57;100149.75;1735103;81;20653;-80
2021/05/05 10:43:06;;;;;;;30.20;7.15;;;;;;;24.95;28.70;100142.63;1738215;79;21101;-78
2021/05/05 10:45:38;;;;;;;22.62;4.03;;;;;;;24.96;28.73;100144.27;1746433;79;21157;-79
2021/05/05 10:48:13;;;;;;;28.02;7.20;;;;;;;24.99;28.77;100149.78;1705512;83;21154;-79
2021/05/05 10:50:53;;;;;;;44.23;7.00;;;;;;;25.01;28.88;100143.48;1743907;81;21148;-78
2021/05/05 10:53:26;;;;;;;8.00;3.30;;;;;;;25.01;28.62;100153.89;1747138;81;21140;-79
2021/05/05 10:55:59;;;;;;;10.78;2.47;;;;;;;25.01;28.68;100153.08;1743211;81;21176;-80
2021/05/05 10:58:31;;;;;;;20.62;4.05;;;;;;;25.02;28.94;100147.87;1736783;81;21666;-80
2021/05/05 11:01:05;;;;;;;16.00;3.50;;;;;;;25.03;28.68;100142.15;1742209;81;21116;-81
2021/05/05 11:03:49;;;;;;;4.47;2.00;;;;;;;25.04;29.00;100141.59;1747356;81;21460;-79
2021/05/05 11:06:38;;;;;;;7.40;2.37;;;;;;;25.07;28.58;100146.54;1740469;81;21125;-79
2021/05/05 11:09:19;;;;;;;9.38;2.40;;;;;;;25.07;28.71;100115.02;1741737;81;21638;-79
2021/05/05 11:11:48;;;;;;;7.42;3.02;;;;;;;25.07;28.80;100121.87;1740233;81;21169;-80
2021/05/05 11:14:33;;;;;;;8.23;2.70;;;;;;;25.06;28.38;100125.70;1742119;81;21128;-78
2021/05/05 11:17:02;;;;;;;25.68;5.03;;;;;;;25.04;28.75;100122.42;1747382;81;21127;-80
2021/05/05 11:19:42;;;;;;;15.78;3.30;;;;;;;25.07;28.74;100120.50;1739645;81;21188;-79
2021/05/05 11:22:27;;;;;;;7.00;2.12;;;;;;;25.11;28.32;100126.33;1741204;79;21140;-79
2021/05/05 11:24:56;;;;;;;3.08;1.65;;;;;;;25.13;28.26;100125.53;1747771;81;21599;-79
2021/05/05 11:27:47;;;;;;;;;;;;;;;25.14;28.03;100117.04;1740668;79;21168;-80
2021/05/05 11:30:40;;;;;;;13.20;3.12;;;;;;;25.16;28.28;100102.52;1738557;79;20507;-80
2021/05/05 11:33:09;;;;;;;4.45;2.22;;;;;;;25.19;28.27;100110.77;1737819;81;21133;-79
2021/05/05 11:35:38;;;;;;;3.70;1.50;;;;;;;25.19;28.20;100103.92;1721605;81;21210;-79
2021/05/05 11:38:18;;;;;;;6.42;2.15;;;;;;;25.14;28.08;100117.59;1731363;82;21129;-80
2021/05/05 11:40:58;;;;;;;7.80;1.90;;;;;;;25.10;28.40;100098.64;1735359;81;21671;-80
2021/05/05 11:43:27;;;;;;;4.37;2.00;;;;;;;25.09;28.59;100114.27;1725913;82;21627;-80
2021/05/05 11:46:02;;;;;;;7.25;1.92;;;;;;;25.09;28.61;100105.22;1729102;82;21157;-80
2021/05/05 11:48:33;;;;;;;5.65;1.40;;;;;;;25.10;28.14;100098.09;1729056;82;21126;-78
2021/05/05 11:51:04;;;;;;;2.70;1.60;;;;;;;25.07;27.80;100104.06;1722174;81;21553;-80
2021/05/05 11:53:36;;;;;;;10.63;2.50;;;;;;;25.04;27.80;100078.57;1722535;81;21106;-79
2021/05/05 11:56:21;;;;;;;7.97;1.72;;;;;;;25.02;27.68;100096.62;1737405;79;21157;-79